< Typhoon 201917 2019 Season Typhoon 201919 >
Typhoon 201918 (MITAG)
General InformationTrack Information on Google MapsDetailed Wind InformationForecast History on Google MapsAccess Analytics MapList of All Images || NewsDisaster Info.WeblogTrackbackTyphoon FrontTwiphoonTyphoon Now!Typhoon ImaginationJMA Disaster Info. XMLResourceGoogle EarthGE AnimationAtom FeedGeoJSON
Detalied Best Track (Time Zone = UTC)
Year Month Day Hour Lat. Long. Pressure (hPa) Wind (kt) Class Image Chart
2019 9 24 12 9.6 155.0 1012 0 2 Image Chart
2019 9 24 18 9.7 154.1 1010 0 2 Image Chart
2019 9 25 00 9.9 153.2 1010 0 2 Image Chart
2019 9 25 06 10.3 152.2 1008 0 2 Image Chart
2019 9 25 12 10.7 151.0 1010 0 2 Image Chart
2019 9 25 18 10.9 149.4 1008 0 2 Image Chart
2019 9 26 00 11.4 147.3 1010 0 2 Image Chart
2019 9 26 06 11.6 145.1 1008 0 2 Image Chart
2019 9 26 12 11.9 143.1 1010 0 2 Image Chart
2019 9 26 18 12.4 141.1 1008 0 2 Image Chart
2019 9 27 00 13.0 139.2 1008 0 2 Image Chart
2019 9 27 06 13.5 137.6 1006 0 2 Image Chart
2019 9 27 12 14.2 136.0 1006 0 2 Image Chart
2019 9 27 18 14.9 134.4 1004 0 2 Image Chart
2019 9 28 00 15.7 132.8 1000 35 3 Image Chart
2019 9 28 06 16.9 130.7 998 40 3 Image Chart
2019 9 28 12 17.4 129.2 996 40 3 Image Chart
2019 9 28 18 17.8 127.9 992 45 3 Image Chart
2019 9 29 00 18.3 126.9 990 50 4 Image Chart
2019 9 29 06 19.2 125.9 985 55 4 Image Chart
2019 9 29 12 20.1 124.8 980 60 4 Image Chart
2019 9 29 18 20.9 123.7 975 60 4 Image Chart
2019 9 30 00 21.7 123.0 970 65 5 Image Chart
2019 9 30 03 22.2 122.9 970 70 5 Image Chart
2019 9 30 06 22.9 122.9 970 70 5 Image Chart
2019 9 30 09 23.7 122.9 970 70 5 Image Chart
2019 9 30 12 24.6 122.9 965 75 5 Image Chart
2019 9 30 15 25.4 122.8 965 75 5 Image Chart
2019 9 30 18 26.1 122.6 965 75 5 Image Chart
2019 10 1 00 27.4 122.4 970 70 5 Image Chart
2019 10 1 06 28.6 122.2 980 60 4 Image Chart
2019 10 1 12 29.9 122.5 980 60 4 Image Chart
2019 10 1 18 30.6 122.9 985 55 4 Image Chart
2019 10 2 00 32.0 123.9 990 50 4 Image Chart
2019 10 2 06 33.3 124.7 990 50 4 Image Chart
2019 10 2 12 34.4 126.3 990 45 3 Image Chart
2019 10 2 18 35.8 128.2 994 40 3 Image Chart
2019 10 3 00 37.6 129.9 992 40 3 Image Chart
2019 10 3 06 38.0 131.0 988 0 6 Image Chart
2019 10 3 12 38.7 132.6 988 0 6 Image Chart
2019 10 3 18 38.8 134.5 988 0 6 Image Chart
2019 10 4 00 39.1 136.5 992 0 6 Image Chart
2019 10 4 06 38.9 138.5 992 0 6 Image Chart
2019 10 4 12 38.6 140.9 994 0 6 Image Chart
2019 10 4 18 39.1 143.5 996 0 6 Image Chart
2019 10 5 00 39.6 146.1 998 0 6 Image Chart
2019 10 5 06 40.9 148.9 998 0 6 Image Chart
2019 10 5 12 43.4 151.7 1000 0 6 Image Chart
Japan Meteorological Agency Best Track Data | Correction Date : 2019-11-28
< Typhoon 201917 2019 Season Typhoon 201919 >

Help